sensor_id;sensor_type;location;lat;lon;timestamp;pressure;altitude;pressure_sealevel;temperature;humidity
65227;BME280;51805;49.012;12.104;2023-07-16T00:00:50;97319.47;;;29.26;38.78
65227;BME280;51805;49.012;12.104;2023-07-16T00:03:15;97322.53;;;29.24;38.74
65227;BME280;51805;49.012;12.104;2023-07-16T00:05:41;97345.88;;;29.21;38.62
65227;BME280;51805;49.012;12.104;2023-07-16T00:08:06;97379.00;;;29.29;38.60
65227;BME280;51805;49.012;12.104;2023-07-16T00:10:35;97400.91;;;29.29;38.79
65227;BME280;51805;49.012;12.104;2023-07-16T00:13:02;97414.59;;;29.29;38.86
65227;BME280;51805;49.012;12.104;2023-07-16T00:15:27;97435.88;;;29.23;38.75
65227;BME280;51805;49.012;12.104;2023-07-16T00:17:52;97457.75;;;29.23;38.76
65227;BME280;51805;49.012;12.104;2023-07-16T00:20:17;97481.41;;;29.27;38.87
65227;BME280;51805;49.012;12.104;2023-07-16T00:22:43;97450.56;;;29.18;38.81
65227;BME280;51805;49.012;12.104;2023-07-16T00:25:08;97482.53;;;29.27;38.72
65227;BME280;51805;49.012;12.104;2023-07-16T00:27:33;97498.16;;;29.26;38.77
65227;BME280;51805;49.012;12.104;2023-07-16T00:29:58;97505.59;;;29.26;38.63
65227;BME280;51805;49.012;12.104;2023-07-16T00:32:24;97500.63;;;29.19;38.96
65227;BME280;51805;49.012;12.104;2023-07-16T00:34:49;97490.50;;;29.19;38.66
65227;BME280;51805;49.012;12.104;2023-07-16T00:37:14;97474.06;;;29.19;38.58
65227;BME280;51805;49.012;12.104;2023-07-16T00:39:39;97449.91;;;29.21;38.57
65227;BME280;51805;49.012;12.104;2023-07-16T00:42:05;97409.84;;;29.17;38.90
65227;BME280;51805;49.012;12.104;2023-07-16T00:44:30;97412.38;;;29.22;38.83
65227;BME280;51805;49.012;12.104;2023-07-16T00:46:56;97434.34;;;29.13;38.72
65227;BME280;51805;49.012;12.104;2023-07-16T00:49:21;97465.63;;;29.24;38.83
65227;BME280;51805;49.012;12.104;2023-07-16T00:51:47;97477.25;;;29.21;38.75
65227;BME280;51805;49.012;12.104;2023-07-16T00:54:12;97498.03;;;29.23;38.69
65227;BME280;51805;49.012;12.104;2023-07-16T00:56:38;97494.16;;;29.23;38.79
65227;BME280;51805;49.012;12.104;2023-07-16T00:59:03;97480.81;;;29.22;38.90
65227;BME280;51805;49.012;12.104;2023-07-16T01:01:28;97493.56;;;29.18;38.93
65227;BME280;51805;49.012;12.104;2023-07-16T01:03:54;97528.00;;;29.19;38.83
65227;BME280;51805;49.012;12.104;2023-07-16T01:06:33;97492.75;;;29.17;38.79
65227;BME280;51805;49.012;12.104;2023-07-16T01:09:03;97500.31;;;29.20;38.86
65227;BME280;51805;49.012;12.104;2023-07-16T01:11:30;97504.03;;;29.16;38.88
65227;BME280;51805;49.012;12.104;2023-07-16T01:13:56;97512.06;;;29.21;38.72
65227;BME280;51805;49.012;12.104;2023-07-16T01:16:23;97522.19;;;29.20;38.95
65227;BME280;51805;49.012;12.104;2023-07-16T01:18:49;97535.94;;;29.12;38.63
65227;BME280;51805;49.012;12.104;2023-07-16T01:21:16;97557.50;;;29.13;38.76
65227;BME280;51805;49.012;12.104;2023-07-16T01:31:32;97590.31;;;29.13;39.11
65227;BME280;51805;49.012;12.104;2023-07-16T01:33:58;97591.63;;;29.16;38.85
65227;BME280;51805;49.012;12.104;2023-07-16T01:36:24;97616.91;;;29.13;39.04
65227;BME280;51805;49.012;12.104;2023-07-16T01:38:49;97635.44;;;29.07;38.92
65227;BME280;51805;49.012;12.104;2023-07-16T01:41:15;97667.91;;;29.17;38.90
65227;BME280;51805;49.012;12.104;2023-07-16T01:43:40;97676.97;;;29.09;39.13
65227;BME280;51805;49.012;12.104;2023-07-16T01:46:05;97692.06;;;29.15;39.06
65227;BME280;51805;49.012;12.104;2023-07-16T01:48:33;97685.66;;;29.11;38.89
65227;BME280;51805;49.012;12.104;2023-07-16T01:50:59;97684.50;;;29.12;38.98
65227;BME280;51805;49.012;12.104;2023-07-16T01:53:24;97689.66;;;29.14;38.91
65227;BME280;51805;49.012;12.104;2023-07-16T01:55:50;97695.31;;;29.09;39.21
65227;BME280;51805;49.012;12.104;2023-07-16T01:58:15;97704.19;;;29.06;38.90
65227;BME280;51805;49.012;12.104;2023-07-16T02:00:41;97709.81;;;29.09;38.94
65227;BME280;51805;49.012;12.104;2023-07-16T02:03:07;97716.09;;;29.10;38.88
65227;BME280;51805;49.012;12.104;2023-07-16T02:05:32;97719.59;;;29.10;38.82
65227;BME280;51805;49.012;12.104;2023-07-16T02:07:57;97710.47;;;29.06;39.07
65227;BME280;51805;49.012;12.104;2023-07-16T02:10:23;97715.28;;;29.09;39.05
65227;BME280;51805;49.012;12.104;2023-07-16T02:12:48;97715.28;;;29.09;39.22
65227;BME280;51805;49.012;12.104;2023-07-16T02:15:13;97709.94;;;29.04;39.01
65227;BME280;51805;49.012;12.104;2023-07-16T02:17:39;97716.09;;;29.10;39.08
65227;BME280;51805;49.012;12.104;2023-07-16T02:20:04;97710.47;;;29.06;39.28
65227;BME280;51805;49.012;12.104;2023-07-16T02:22:30;97696.25;;;29.04;39.01
65227;BME280;51805;49.012;12.104;2023-07-16T02:24:55;97682.13;;;29.02;38.93
65227;BME280;51805;49.012;12.104;2023-07-16T02:27:21;97676.81;;;29.06;39.13
65227;BME280;51805;49.012;12.104;2023-07-16T02:29:46;97660.25;;;29.02;38.93
65227;BME280;51805;49.012;12.104;2023-07-16T02:32:11;97676.47;;;29.07;39.03
65227;BME280;51805;49.012;12.104;2023-07-16T02:34:36;97649.00;;;28.95;39.09
65227;BME280;51805;49.012;12.104;2023-07-16T02:37:02;97665.88;;;29.06;38.99
65227;BME280;51805;49.012;12.104;2023-07-16T02:39:27;97672.78;;;29.03;39.17
65227;BME280;51805;49.012;12.104;2023-07-16T02:41:52;97673.59;;;29.04;39.13
65227;BME280;51805;49.012;12.104;2023-07-16T02:44:17;97685.31;;;29.04;39.10
65227;BME280;51805;49.012;12.104;2023-07-16T02:46:43;97673.75;;;28.99;38.83
65227;BME280;51805;49.012;12.104;2023-07-16T02:49:08;97677.91;;;29.05;39.16
65227;BME280;51805;49.012;12.104;2023-07-16T02:51:33;97675.69;;;28.98;38.97
65227;BME280;51805;49.012;12.104;2023-07-16T02:53:58;97697.41;;;29.03;39.01
65227;BME280;51805;49.012;12.104;2023-07-16T02:56:24;97722.56;;;29.05;38.96
65227;BME280;51805;49.012;12.104;2023-07-16T02:58:49;97728.03;;;29.05;39.07
65227;BME280;51805;49.012;12.104;2023-07-16T03:01:14;97741.69;;;29.05;38.97
65227;BME280;51805;49.012;12.104;2023-07-16T03:03:39;97728.81;;;28.97;38.98
65227;BME280;51805;49.012;12.104;2023-07-16T03:06:04;97750.22;;;29.04;38.97
65227;BME280;51805;49.012;12.104;2023-07-16T03:08:30;97759.19;;;29.04;39.01
65227;BME280;51805;49.012;12.104;2023-07-16T03:10:56;97772.44;;;29.02;39.10
65227;BME280;51805;49.012;12.104;2023-07-16T03:13:21;97785.78;;;29.04;38.97
65227;BME280;51805;49.012;12.104;2023-07-16T03:15:46;97790.44;;;29.03;39.09
65227;BME280;51805;49.012;12.104;2023-07-16T03:18:12;97768.56;;;29.03;39.00
65227;BME280;51805;49.012;12.104;2023-07-16T03:20:37;97763.41;;;29.02;38.89
65227;BME280;51805;49.012;12.104;2023-07-16T03:23:02;97769.53;;;28.99;39.07
65227;BME280;51805;49.012;12.104;2023-07-16T03:25:27;97772.75;;;29.01;39.07
65227;BME280;51805;49.012;12.104;2023-07-16T03:27:52;97776.44;;;28.96;38.92
65227;BME280;51805;49.012;12.104;2023-07-16T03:30:18;97773.41;;;28.98;39.02
65227;BME280;51805;49.012;12.104;2023-07-16T03:32:43;97785.78;;;28.95;39.15
65227;BME280;51805;49.012;12.104;2023-07-16T03:35:08;97770.81;;;29.01;39.16
65227;BME280;51805;49.012;12.104;2023-07-16T03:37:34;97746.34;;;28.96;39.33
65227;BME280;51805;49.012;12.104;2023-07-16T03:40:12;97741.84;;;29.00;38.95
65227;BME280;51805;49.012;12.104;2023-07-16T03:42:38;97722.38;;;28.93;39.29
65227;BME280;51805;49.012;12.104;2023-07-16T03:45:03;97711.44;;;28.93;39.31
65227;BME280;51805;49.012;12.104;2023-07-16T03:47:29;97716.25;;;28.96;38.92
65227;BME280;51805;49.012;12.104;2023-07-16T03:49:54;97712.25;;;28.94;39.24
65227;BME280;51805;49.012;12.104;2023-07-16T03:52:19;97723.50;;;29.01;39.01
65227;BME280;51805;49.012;12.104;2023-07-16T03:54:44;97741.84;;;29.00;39.18
65227;BME280;51805;49.012;12.104;2023-07-16T03:57:10;97734.28;;;28.97;39.10
65227;BME280;51805;49.012;12.104;2023-07-16T03:59:35;97706.78;;;28.94;39.21
65227;BME280;51805;49.012;12.104;2023-07-16T04:02:00;97709.66;;;28.97;38.98
65227;BME280;51805;49.012;12.104;2023-07-16T04:04:25;97714.16;;;28.93;39.05
65227;BME280;51805;49.012;12.104;2023-07-16T04:06:50;97720.59;;;28.97;39.04
65227;BME280;51805;49.012;12.104;2023-07-16T04:09:16;97726.56;;;28.99;39.03
65227;BME280;51805;49.012;12.104;2023-07-16T04:11:41;97735.88;;;28.98;39.12
65227;BME280;51805;49.012;12.104;2023-07-16T04:14:06;97737.69;;;28.94;39.22
65227;BME280;51805;49.012;12.104;2023-07-16T04:16:31;97746.81;;;28.98;39.15
65227;BME280;51805;49.012;12.104;2023-07-16T04:18:56;97755.38;;;28.97;39.07
65227;BME280;51805;49.012;12.104;2023-07-16T04:21:22;97734.28;;;28.97;39.11
65227;BME280;51805;49.012;12.104;2023-07-16T04:23:47;97741.19;;;28.95;38.93
65227;BME280;51805;49.012;12.104;2023-07-16T04:26:12;97729.16;;;28.87;39.09
65227;BME280;51805;49.012;12.104;2023-07-16T04:28:37;97751.19;;;28.91;39.12
65227;BME280;51805;49.012;12.104;2023-07-16T04:31:03;97769.38;;;28.95;39.06
65227;BME280;51805;49.012;12.104;2023-07-16T04:33:28;97780.63;;;28.94;39.28
65227;BME280;51805;49.012;12.104;2023-07-16T04:35:53;97806.06;;;28.94;38.93
65227;BME280;51805;49.012;12.104;2023-07-16T04:38:18;97813.97;;;28.96;38.98
65227;BME280;51805;49.012;12.104;2023-07-16T04:40:43;97817.03;;;28.94;39.03
65227;BME280;51805;49.012;12.104;2023-07-16T04:43:09;97823.75;;;28.97;39.08
65227;BME280;51805;49.012;12.104;2023-07-16T04:45:35;97825.06;;;28.91;38.92
65227;BME280;51805;49.012;12.104;2023-07-16T04:48:00;97830.88;;;28.98;38.89
65227;BME280;51805;49.012;12.104;2023-07-16T04:50:26;97816.84;;;28.91;39.03
65227;BME280;51805;49.012;12.104;2023-07-16T04:52:51;97824.75;;;28.92;39.03
65227;BME280;51805;49.012;12.104;2023-07-16T04:55:16;97822.34;;;28.91;39.10
65227;BME280;51805;49.012;12.104;2023-07-16T04:57:42;97826.19;;;28.90;39.05
65227;BME280;51805;49.012;12.104;2023-07-16T05:00:07;97854.69;;;28.97;39.10
65227;BME280;51805;49.012;12.104;2023-07-16T05:02:32;97844.38;;;28.94;39.14
65227;BME280;51805;49.012;12.104;2023-07-16T05:04:58;97840.66;;;28.90;39.13
65227;BME280;51805;49.012;12.104;2023-07-16T05:07:23;97865.13;;;28.95;39.00
65227;BME280;51805;49.012;12.104;2023-07-16T05:09:48;97870.13;;;28.93;39.01
65227;BME280;51805;49.012;12.104;2023-07-16T05:12:14;97879.94;;;28.94;39.20
65227;BME280;51805;49.012;12.104;2023-07-16T05:14:47;97884.28;;;28.95;39.02
65227;BME280;51805;49.012;12.104;2023-07-16T05:17:13;97892.81;;;28.94;38.97
65227;BME280;51805;49.012;12.104;2023-07-16T05:19:38;97896.81;;;28.96;39.17
65227;BME280;51805;49.012;12.104;2023-07-16T05:22:04;97895.22;;;28.95;39.17
65227;BME280;51805;49.012;12.104;2023-07-16T05:24:30;97891.34;;;28.96;39.23
65227;BME280;51805;49.012;12.104;2023-07-16T05:26:56;97881.38;;;28.92;39.20
65227;BME280;51805;49.012;12.104;2023-07-16T05:29:21;97887.03;;;28.95;39.20
65227;BME280;51805;49.012;12.104;2023-07-16T05:31:46;97885.75;;;28.93;39.15
65227;BME280;51805;49.012;12.104;2023-07-16T05:34:12;97891.22;;;28.93;39.13
65227;BME280;51805;49.012;12.104;2023-07-16T05:36:37;97899.09;;;28.94;39.32
65227;BME280;51805;49.012;12.104;2023-07-16T05:39:02;97897.47;;;28.93;39.21
65227;BME280;51805;49.012;12.104;2023-07-16T05:41:28;97900.22;;;28.93;39.16
65227;BME280;51805;49.012;12.104;2023-07-16T05:43:53;97901.84;;;28.94;39.13
65227;BME280;51805;49.012;12.104;2023-07-16T05:46:18;97897.78;;;28.92;39.19
65227;BME280;51805;49.012;12.104;2023-07-16T05:48:43;97900.22;;;28.93;39.22
65227;BME280;51805;49.012;12.104;2023-07-16T05:51:09;97900.22;;;28.93;39.13
65227;BME280;51805;49.012;12.104;2023-07-16T05:53:34;97906.50;;;28.94;38.95
65227;BME280;51805;49.012;12.104;2023-07-16T05:55:59;97907.97;;;28.91;39.19
65227;BME280;51805;49.012;12.104;2023-07-16T05:58:24;97913.88;;;28.93;39.17
65227;BME280;51805;49.012;12.104;2023-07-16T06:00:50;97912.28;;;28.92;39.35
65227;BME280;51805;49.012;12.104;2023-07-16T06:03:16;97905.22;;;28.91;39.04
65227;BME280;51805;49.012;12.104;2023-07-16T06:05:42;97918.72;;;28.96;39.15
65227;BME280;51805;49.012;12.104;2023-07-16T06:08:07;97908.59;;;28.88;38.96
65227;BME280;51805;49.012;12.104;2023-07-16T06:10:34;97922.28;;;28.97;39.00
65227;BME280;51805;49.012;12.104;2023-07-16T06:12:59;97915.97;;;28.96;39.08
65227;BME280;51805;49.012;12.104;2023-07-16T06:15:24;97921.31;;;28.93;39.04
65227;BME280;51805;49.012;12.104;2023-07-16T06:17:49;97940.59;;;28.96;39.06
65227;BME280;51805;49.012;12.104;2023-07-16T06:20:15;97942.56;;;28.96;38.96
65227;BME280;51805;49.012;12.104;2023-07-16T06:22:40;97926.94;;;28.96;39.07
65227;BME280;51805;49.012;12.104;2023-07-16T06:25:06;97923.56;;;28.91;38.86
65227;BME280;51805;49.012;12.104;2023-07-16T06:27:31;97939.19;;;28.99;38.93
65227;BME280;51805;49.012;12.104;2023-07-16T06:29:57;97956.72;;;28.98;39.02
65227;BME280;51805;49.012;12.104;2023-07-16T06:32:22;97954.78;;;28.98;39.08
65227;BME280;51805;49.012;12.104;2023-07-16T06:34:47;97942.38;;;28.92;39.03
65227;BME280;51805;49.012;12.104;2023-07-16T06:37:12;97955.41;;;28.95;39.06
65227;BME280;51805;49.012;12.104;2023-07-16T06:39:38;97956.56;;;28.94;39.00
65227;BME280;51805;49.012;12.104;2023-07-16T06:42:03;97969.28;;;28.99;39.01
65227;BME280;51805;49.012;12.104;2023-07-16T06:44:28;97961.72;;;28.96;38.99
65227;BME280;51805;49.012;12.104;2023-07-16T06:46:54;97969.59;;;28.97;39.00
65227;BME280;51805;49.012;12.104;2023-07-16T06:49:19;97964.44;;;28.96;38.97
65227;BME280;51805;49.012;12.104;2023-07-16T06:51:44;97967.00;;;28.92;39.11
65227;BME280;51805;49.012;12.104;2023-07-16T06:54:10;97978.13;;;28.96;39.20
65227;BME280;51805;49.012;12.104;2023-07-16T06:56:35;97967.66;;;28.89;39.14
65227;BME280;51805;49.012;12.104;2023-07-16T06:59:00;97989.06;;;28.96;39.18
65227;BME280;51805;49.012;12.104;2023-07-16T07:01:26;97989.41;;;28.94;39.05
65227;BME280;51805;49.012;12.104;2023-07-16T07:03:51;97986.66;;;28.94;39.22
65227;BME280;51805;49.012;12.104;2023-07-16T07:06:16;97991.00;;;28.95;39.10
65227;BME280;51805;49.012;12.104;2023-07-16T07:08:41;97987.44;;;28.95;38.97
65227;BME280;51805;49.012;12.104;2023-07-16T07:11:07;97993.72;;;28.95;39.20
65227;BME280;51805;49.012;12.104;2023-07-16T07:13:32;97986.16;;;28.92;39.00
65227;BME280;51805;49.012;12.104;2023-07-16T07:15:57;97983.44;;;28.92;38.99
65227;BME280;51805;49.012;12.104;2023-07-16T07:18:22;97982.63;;;28.92;39.11
65227;BME280;51805;49.012;12.104;2023-07-16T07:20:48;97997.28;;;28.96;39.15
65227;BME280;51805;49.012;12.104;2023-07-16T07:23:14;98003.53;;;28.96;38.92
65227;BME280;51805;49.012;12.104;2023-07-16T07:25:39;98009.00;;;28.96;39.12
65227;BME280;51805;49.012;12.104;2023-07-16T07:28:05;97999.19;;;28.95;39.08
65227;BME280;51805;49.012;12.104;2023-07-16T07:30:30;97993.59;;;29.00;38.80
65227;BME280;51805;49.012;12.104;2023-07-16T07:32:55;97988.59;;;29.02;38.90
65227;BME280;51805;49.012;12.104;2023-07-16T07:35:21;98000.53;;;29.06;38.81
65227;BME280;51805;49.012;12.104;2023-07-16T07:37:46;97999.72;;;29.06;38.85
65227;BME280;51805;49.012;12.104;2023-07-16T07:40:11;97998.09;;;29.05;38.71
65227;BME280;51805;49.012;12.104;2023-07-16T07:42:37;97995.69;;;29.03;38.80
65227;BME280;51805;49.012;12.104;2023-07-16T07:45:02;98001.50;;;29.10;38.71
65227;BME280;51805;49.012;12.104;2023-07-16T07:47:28;97991.34;;;29.11;38.65
65227;BME280;51805;49.012;12.104;2023-07-16T07:49:53;98000.84;;;29.13;38.75
65227;BME280;51805;49.012;12.104;2023-07-16T07:52:18;98000.84;;;29.13;38.79
65227;BME280;51805;49.012;12.104;2023-07-16T07:54:44;98003.25;;;29.15;38.55
65227;BME280;51805;49.012;12.104;2023-07-16T07:57:09;98006.31;;;29.13;38.82
65227;BME280;51805;49.012;12.104;2023-07-16T07:59:34;97999.41;;;29.07;38.66
65227;BME280;51805;49.012;12.104;2023-07-16T08:02:00;97997.81;;;29.06;38.85
65227;BME280;51805;49.012;12.104;2023-07-16T08:04:25;98004.72;;;29.12;38.77
65227;BME280;51805;49.012;12.104;2023-07-16T08:06:53;98005.38;;;29.09;38.90
65227;BME280;51805;49.012;12.104;2023-07-16T08:09:18;98014.06;;;29.11;38.82
65227;BME280;51805;49.012;12.104;2023-07-16T08:11:43;98012.09;;;29.03;38.72
65227;BME280;51805;49.012;12.104;2023-07-16T08:14:09;98019.16;;;29.04;39.07
65227;BME280;51805;49.012;12.104;2023-07-16T08:16:34;98023.38;;;29.10;38.83
65227;BME280;51805;49.012;12.104;2023-07-16T08:18:59;98008.44;;;29.08;38.82
65227;BME280;51805;49.012;12.104;2023-07-16T08:21:24;98012.44;;;29.10;38.85
65227;BME280;51805;49.012;12.104;2023-07-16T08:23:50;98015.50;;;29.09;38.82
65227;BME280;51805;49.012;12.104;2023-07-16T08:26:16;98035.47;;;29.09;39.01
65227;BME280;51805;49.012;12.104;2023-07-16T08:28:41;98035.47;;;29.09;39.04
65227;BME280;51805;49.012;12.104;2023-07-16T08:31:07;98029.50;;;29.07;38.97
65227;BME280;51805;49.012;12.104;2023-07-16T08:33:32;98021.63;;;29.06;38.99
65227;BME280;51805;49.012;12.104;2023-07-16T08:35:57;98022.44;;;29.06;38.86
65227;BME280;51805;49.012;12.104;2023-07-16T08:38:22;98010.97;;;29.04;39.08
65227;BME280;51805;49.012;12.104;2023-07-16T08:40:48;98020.97;;;29.09;38.86
65227;BME280;51805;49.012;12.104;2023-07-16T08:43:13;98028.34;;;29.00;38.94
65227;BME280;51805;49.012;12.104;2023-07-16T08:45:41;98024.03;;;29.07;39.15
65227;BME280;51805;49.012;12.104;2023-07-16T08:48:07;98018.38;;;29.04;38.76
65227;BME280;51805;49.012;12.104;2023-07-16T08:50:35;98015.81;;;29.07;38.96
65227;BME280;51805;49.012;12.104;2023-07-16T08:53:01;98000.66;;;29.01;38.98
65227;BME280;51805;49.012;12.104;2023-07-16T08:55:26;97994.06;;;29.02;38.65
65227;BME280;51805;49.012;12.104;2023-07-16T08:57:53;97989.88;;;29.05;39.05
65227;BME280;51805;49.012;12.104;2023-07-16T09:00:18;97976.84;;;29.02;38.80
65227;BME280;51805;49.012;12.104;2023-07-16T09:02:43;97991.19;;;29.07;38.82
65227;BME280;51805;49.012;12.104;2023-07-16T09:05:09;97988.44;;;29.07;38.85
65227;BME280;51805;49.012;12.104;2023-07-16T09:07:35;97995.56;;;29.08;38.71
65227;BME280;51805;49.012;12.104;2023-07-16T09:10:00;97978.66;;;29.06;38.84
65227;BME280;51805;49.012;12.104;2023-07-16T09:12:26;97976.53;;;29.12;38.86
65227;BME280;51805;49.012;12.104;2023-07-16T09:14:52;97995.38;;;29.13;38.84
65227;BME280;51805;49.012;12.104;2023-07-16T09:17:24;97984.91;;;29.15;38.66
65227;BME280;51805;49.012;12.104;2023-07-16T09:19:50;97993.31;;;29.19;38.56
65227;BME280;51805;49.012;12.104;2023-07-16T09:22:17;97994.13;;;29.19;38.51
65227;BME280;51805;49.012;12.104;2023-07-16T09:24:44;97992.16;;;29.20;38.60
65227;BME280;51805;49.012;12.104;2023-07-16T09:27:11;97998.94;;;29.23;38.47
65227;BME280;51805;49.012;12.104;2023-07-16T09:29:38;98000.38;;;29.20;38.66
65227;BME280;51805;49.012;12.104;2023-07-16T09:32:04;98004.41;;;29.23;38.64
65227;BME280;51805;49.012;12.104;2023-07-16T09:34:29;98002.78;;;29.21;38.73
65227;BME280;51805;49.012;12.104;2023-07-16T09:36:59;97997.81;;;29.23;38.59
65227;BME280;51805;49.012;12.104;2023-07-16T09:39:25;98003.13;;;29.20;38.82
65227;BME280;51805;49.012;12.104;2023-07-16T09:41:51;98011.50;;;29.23;38.71
65227;BME280;51805;49.012;12.104;2023-07-16T09:44:17;98018.88;;;29.23;38.60
65227;BME280;51805;49.012;12.104;2023-07-16T09:46:44;97999.59;;;29.19;38.56
65227;BME280;51805;49.012;12.104;2023-07-16T09:49:09;98013.09;;;29.24;38.56
65227;BME280;51805;49.012;12.104;2023-07-16T09:51:36;98006.84;;;29.24;38.59
65227;BME280;51805;49.012;12.104;2023-07-16T09:54:02;98008.44;;;29.25;38.50
65227;BME280;51805;49.012;12.104;2023-07-16T09:56:36;98002.78;;;29.21;38.71
65227;BME280;51805;49.012;12.104;2023-07-16T09:59:05;98005.19;;;29.23;38.69
65227;BME280;51805;49.012;12.104;2023-07-16T10:01:32;98004.25;;;29.27;38.58
65227;BME280;51805;49.012;12.104;2023-07-16T10:03:58;98001.81;;;29.26;38.58
65227;BME280;51805;49.012;12.104;2023-07-16T10:06:23;97996.34;;;29.26;38.58
65227;BME280;51805;49.012;12.104;2023-07-16T10:08:49;98000.84;;;29.31;38.51
65227;BME280;51805;49.012;12.104;2023-07-16T10:11:16;97996.84;;;29.28;38.60
65227;BME280;51805;49.012;12.104;2023-07-16T10:13:42;97996.03;;;29.27;38.49
65227;BME280;51805;49.012;12.104;2023-07-16T10:16:07;97988.13;;;29.26;38.64
65227;BME280;51805;49.012;12.104;2023-07-16T10:18:32;97978.66;;;29.23;38.67
65227;BME280;51805;49.012;12.104;2023-07-16T10:21:05;97981.56;;;29.27;38.66
65227;BME280;51805;49.012;12.104;2023-07-16T10:23:43;97993.78;;;29.30;38.50
65227;BME280;51805;49.012;12.104;2023-07-16T10:26:14;97992.63;;;29.31;38.47
65227;BME280;51805;49.012;12.104;2023-07-16T10:28:40;97998.59;;;29.33;38.54
65227;BME280;51805;49.012;12.104;2023-07-16T10:31:06;97998.59;;;29.33;38.41
65227;BME280;51805;49.012;12.104;2023-07-16T10:33:31;97998.59;;;29.33;38.43
65227;BME280;51805;49.012;12.104;2023-07-16T10:35:57;97992.00;;;29.34;38.46
65227;BME280;51805;49.012;12.104;2023-07-16T10:38:23;97985.41;;;29.35;38.29
65227;BME280;51805;49.012;12.104;2023-07-16T10:40:49;97974.47;;;29.35;38.51
65227;BME280;51805;49.012;12.104;2023-07-16T10:43:14;97978.31;;;29.34;38.42
65227;BME280;51805;49.012;12.104;2023-07-16T10:45:40;97974.47;;;29.35;38.35
65227;BME280;51805;49.012;12.104;2023-07-16T10:48:05;97978.31;;;29.34;38.24
65227;BME280;51805;49.012;12.104;2023-07-16T10:50:35;97986.84;;;29.41;38.23
65227;BME280;51805;49.012;12.104;2023-07-16T10:53:00;97959.63;;;29.36;38.24
65227;BME280;51805;49.012;12.104;2023-07-16T10:55:27;97960.59;;;29.40;38.36
65227;BME280;51805;49.012;12.104;2023-07-16T10:57:53;97966.38;;;29.47;38.32
65227;BME280;51805;49.012;12.104;2023-07-16T11:00:18;97954.28;;;29.48;38.06
65227;BME280;51805;49.012;12.104;2023-07-16T11:02:44;97945.75;;;29.49;38.38
65227;BME280;51805;49.012;12.104;2023-07-16T11:05:11;97957.84;;;29.48;38.42
65227;BME280;51805;49.012;12.104;2023-07-16T11:07:37;97955.44;;;29.47;38.13
65227;BME280;51805;49.012;12.104;2023-07-16T11:10:02;97959.31;;;29.46;38.33
65227;BME280;51805;49.012;12.104;2023-07-16T11:12:28;97952.84;;;29.42;38.38
65227;BME280;51805;49.012;12.104;2023-07-16T11:14:55;97953.50;;;29.39;38.44
65227;BME280;51805;49.012;12.104;2023-07-16T11:17:23;97968.47;;;29.50;38.23
65227;BME280;51805;49.012;12.104;2023-07-16T11:19:51;97953.84;;;29.46;38.14
65227;BME280;51805;49.012;12.104;2023-07-16T11:22:17;97934.03;;;29.32;38.25
65227;BME280;51805;49.012;12.104;2023-07-16T11:27:25;97959.13;;;29.51;38.39
65227;BME280;51805;49.012;12.104;2023-07-16T11:29:55;97968.97;;;29.52;38.36
65227;BME280;51805;49.012;12.104;2023-07-16T11:32:33;97966.69;;;29.54;38.25
65227;BME280;51805;49.012;12.104;2023-07-16T11:35:00;97977.63;;;29.54;38.31
65227;BME280;51805;49.012;12.104;2023-07-16T11:37:26;97972.16;;;29.54;38.12
65227;BME280;51805;49.012;12.104;2023-07-16T11:39:57;97962.84;;;29.55;38.26
65227;BME280;51805;49.012;12.104;2023-07-16T11:42:30;97949.59;;;29.57;38.13
65227;BME280;51805;49.012;12.104;2023-07-16T11:44:56;97944.13;;;29.57;38.35
65227;BME280;51805;49.012;12.104;2023-07-16T11:47:22;97939.94;;;29.51;38.38
65227;BME280;51805;49.012;12.104;2023-07-16T11:49:48;97941.56;;;29.52;38.18
65227;BME280;51805;49.012;12.104;2023-07-16T11:52:14;97943.16;;;29.53;38.30
65227;BME280;51805;49.012;12.104;2023-07-16T11:54:39;97949.59;;;29.57;38.41
65227;BME280;51805;49.012;12.104;2023-07-16T11:57:05;97942.34;;;29.52;38.18
65227;BME280;51805;49.012;12.104;2023-07-16T11:59:31;97954.28;;;29.56;38.34
65227;BME280;51805;49.012;12.104;2023-07-16T12:01:57;97943.00;;;29.58;38.18
65227;BME280;51805;49.012;12.104;2023-07-16T12:04:22;97953.78;;;29.63;38.10
65227;BME280;51805;49.012;12.104;2023-07-16T12:06:48;97946.88;;;29.65;38.29
65227;BME280;51805;49.012;12.104;2023-07-16T12:09:13;97925.59;;;29.54;37.92
65227;BME280;51805;49.012;12.104;2023-07-16T12:11:38;97934.47;;;29.59;38.29
65227;BME280;51805;49.012;12.104;2023-07-16T12:14:05;97931.06;;;29.62;38.05
65227;BME280;51805;49.012;12.104;2023-07-16T12:16:30;97932.84;;;29.67;38.06
65227;BME280;51805;49.012;12.104;2023-07-16T12:18:55;97925.44;;;29.59;38.25
65227;BME280;51805;49.012;12.104;2023-07-16T12:21:21;97932.22;;;29.70;38.20
65227;BME280;51805;49.012;12.104;2023-07-16T12:23:46;97925.59;;;29.71;38.31
65227;BME280;51805;49.012;12.104;2023-07-16T12:26:11;97903.53;;;29.59;38.18
65227;BME280;51805;49.012;12.104;2023-07-16T12:28:37;97918.19;;;29.63;38.06
65227;BME280;51805;49.012;12.104;2023-07-16T12:31:02;97905.66;;;29.53;38.10
65227;BME280;51805;49.012;12.104;2023-07-16T12:33:28;97914.47;;;29.59;38.19
65227;BME280;51805;49.012;12.104;2023-07-16T12:35:53;97910.63;;;29.60;38.03
65227;BME280;51805;49.012;12.104;2023-07-16T12:38:18;97910.91;;;29.58;38.13
65227;BME280;51805;49.012;12.104;2023-07-16T12:40:43;97925.47;;;29.67;38.14
65227;BME280;51805;49.012;12.104;2023-07-16T12:43:08;97909.50;;;29.61;38.28
65227;BME280;51805;49.012;12.104;2023-07-16T12:45:34;97910.13;;;29.66;38.19
65227;BME280;51805;49.012;12.104;2023-07-16T12:47:59;97900.66;;;29.64;38.05
65227;BME280;51805;49.012;12.104;2023-07-16T12:50:24;97904.00;;;29.69;38.15
65227;BME280;51805;49.012;12.104;2023-07-16T12:52:50;97899.34;;;29.70;38.17